Time;durP1;ratioP1;P1;durP2;ratioP2;P2;SDS_P1;SDS_P2;PMS_P1;PMS_P2;Temp;Humidity;BMP_temperature;BMP_pressure;BME280_temperature;BME280_humidity;BME280_pressure;Samples;Min_cycle;Max_cycle;Signal;HPM_P1;HPM_P2
2022/10/17 00:01:58;;;;;;;8.68;5.25;;;;;;;;;;5042529;28;20040;-68
2022/10/17 00:04:24;;;;;;;12.77;5.20;;;;;;;;;;5041992;28;20052;-68
2022/10/17 00:06:50;;;;;;;6.22;4.85;;;;;;;;;;5042367;28;20069;-69
2022/10/17 00:09:16;;;;;;;8.57;4.88;;;;;;;;;;5038982;28;20052;-67
2022/10/17 00:11:42;;;;;;;10.55;5.15;;;;;;;;;;5040375;28;20453;-68
2022/10/17 00:14:08;;;;;;;9.23;4.90;;;;;;;;;;5042464;28;20392;-69
2022/10/17 00:16:36;;;;;;;7.57;5.13;;;;;;;;;;5041014;28;20064;-69
2022/10/17 00:19:03;;;;;;;10.02;5.28;;;;;;;;;;5047650;28;20092;-69
2022/10/17 00:21:29;;;;;;;8.05;5.15;;;;;;;;;;5043368;28;20040;-69
2022/10/17 00:23:55;;;;;;;9.80;5.28;;;;;;;;;;5049224;28;20414;-68
2022/10/17 00:26:21;;;;;;;11.27;5.85;;;;;;;;;;5042188;28;20041;-69
2022/10/17 00:28:47;;;;;;;9.60;5.43;;;;;;;;;;5040115;28;20042;-68
2022/10/17 00:31:14;;;;;;;9.27;5.50;;;;;;;;;;5046462;28;20487;-68
2022/10/17 00:33:40;;;;;;;6.43;5.00;;;;;;;;;;5033111;28;20064;-69
2022/10/17 00:36:07;;;;;;;8.00;5.38;;;;;;;;;;5051816;28;20040;-68
2022/10/17 00:38:34;;;;;;;7.78;5.10;;;;;;;;;;5044444;28;20037;-68
2022/10/17 00:41:00;;;;;;;10.25;5.10;;;;;;;;;;5046599;28;20029;-68
2022/10/17 00:43:26;;;;;;;9.80;5.72;;;;;;;;;;5047385;28;20044;-68
2022/10/17 00:45:52;;;;;;;11.10;5.30;;;;;;;;;;5052180;28;20040;-68
2022/10/17 00:48:18;;;;;;;7.25;5.78;;;;;;;;;;5040144;28;20045;-69
2022/10/17 00:50:46;;;;;;;9.23;5.90;;;;;;;;;;5047288;28;20398;-69
2022/10/17 00:53:12;;;;;;;6.57;5.75;;;;;;;;;;5052085;28;20036;-69
2022/10/17 00:55:44;;;;;;;8.82;6.22;;;;;;;;;;5045302;28;20380;-69
2022/10/17 00:58:10;;;;;;;10.80;6.43;;;;;;;;;;5045655;28;20069;-69
2022/10/17 01:00:36;;;;;;;12.65;6.97;;;;;;;;;;5047735;28;20037;-69
2022/10/17 01:03:02;;;;;;;12.15;6.50;;;;;;;;;;5051814;28;20040;-69
2022/10/17 01:05:29;;;;;;;7.93;6.97;;;;;;;;;;5040747;28;20025;-69
2022/10/17 01:07:55;;;;;;;8.70;6.63;;;;;;;;;;5049749;28;20033;-68
2022/10/17 01:10:21;;;;;;;11.00;7.07;;;;;;;;;;5037337;28;20458;-68
2022/10/17 01:12:52;;;;;;;10.85;6.63;;;;;;;;;;5043838;28;20037;-69
2022/10/17 01:15:24;;;;;;;10.73;7.40;;;;;;;;;;5039435;28;20502;-69
2022/10/17 01:18:09;;;;;;;9.60;6.57;;;;;;;;;;5039519;28;20041;-69
2022/10/17 01:20:58;;;;;;;11.18;6.90;;;;;;;;;;5051789;28;20043;-69
2022/10/17 01:23:33;;;;;;;9.32;7.10;;;;;;;;;;5038266;28;20068;-69
2022/10/17 01:26:17;;;;;;;9.27;7.45;;;;;;;;;;5049496;28;20051;-69
2022/10/17 01:29:05;;;;;;;8.43;7.22;;;;;;;;;;5040339;28;20076;-69
2022/10/17 01:32:00;;;;;;;8.80;7.22;;;;;;;;;;5044514;28;20047;-69
2022/10/17 01:34:32;;;;;;;10.35;7.55;;;;;;;;;;5064911;28;20525;-69
2022/10/17 01:37:08;;;;;;;11.60;7.78;;;;;;;;;;5049595;28;20128;-69
2022/10/17 01:39:58;;;;;;;8.43;7.47;;;;;;;;;;5044808;28;20052;-69
2022/10/17 01:42:27;;;;;;;8.48;7.40;;;;;;;;;;5044255;28;20080;-68
2022/10/17 01:44:57;;;;;;;11.13;8.00;;;;;;;;;;5043601;28;20083;-69
2022/10/17 01:47:26;;;;;;;10.40;8.13;;;;;;;;;;5051613;28;20046;-69
2022/10/17 01:49:53;;;;;;;10.18;8.07;;;;;;;;;;5041451;28;20314;-69
2022/10/17 01:52:22;;;;;;;10.85;8.25;;;;;;;;;;5048599;28;20041;-69
2022/10/17 01:54:53;;;;;;;11.95;8.20;;;;;;;;;;5046869;28;20037;-69
2022/10/17 01:57:19;;;;;;;;;;;;;;;;;;5041235;28;20041;-69
2022/10/17 01:59:47;;;;;;;12.25;8.60;;;;;;;;;;5043901;28;19991;-69
2022/10/17 02:02:14;;;;;;;15.23;8.55;;;;;;;;;;5049190;28;20501;-69
2022/10/17 02:04:40;;;;;;;11.32;8.05;;;;;;;;;;5045757;28;20071;-69
2022/10/17 02:07:10;;;;;;;10.05;8.27;;;;;;;;;;5046952;28;20136;-69
2022/10/17 02:09:36;;;;;;;11.73;8.77;;;;;;;;;;5045312;28;20128;-69
2022/10/17 02:12:12;;;;;;;13.43;9.25;;;;;;;;;;5045376;28;20033;-69
2022/10/17 02:14:57;;;;;;;13.68;8.85;;;;;;;;;;5042940;28;20052;-69
2022/10/17 02:17:33;;;;;;;10.30;8.43;;;;;;;;;;5052221;28;20490;-69
2022/10/17 02:20:02;;;;;;;9.80;8.45;;;;;;;;;;5039035;28;20099;-69
2022/10/17 02:22:47;;;;;;;13.25;9.15;;;;;;;;;;5051881;28;20064;-68
2022/10/17 02:25:16;;;;;;;16.67;9.80;;;;;;;;;;5048967;28;20041;-68
2022/10/17 02:27:47;;;;;;;11.98;9.32;;;;;;;;;;5042008;28;20051;-68
2022/10/17 02:30:13;;;;;;;11.18;9.18;;;;;;;;;;5048631;28;20094;-68
2022/10/17 02:32:47;;;;;;;12.98;9.57;;;;;;;;;;5052260;28;20041;-68
2022/10/17 02:35:14;;;;;;;13.18;9.25;;;;;;;;;;5034767;28;20511;-69
2022/10/17 02:37:41;;;;;;;13.93;9.75;;;;;;;;;;5043204;28;20084;-68
2022/10/17 02:40:08;;;;;;;13.57;10.05;;;;;;;;;;5047871;28;20041;-68
2022/10/17 02:42:34;;;;;;;14.18;9.85;;;;;;;;;;5038539;28;20078;-68
2022/10/17 02:45:01;;;;;;;12.25;9.75;;;;;;;;;;5041771;28;20029;-69
2022/10/17 02:47:32;;;;;;;13.60;10.00;;;;;;;;;;5041692;28;20048;-69
2022/10/17 02:49:58;;;;;;;12.15;10.02;;;;;;;;;;5043463;28;20558;-69
2022/10/17 02:52:30;;;;;;;11.13;9.85;;;;;;;;;;5041684;28;20411;-68
2022/10/17 02:55:16;;;;;;;12.68;9.90;;;;;;;;;;5045210;28;20044;-69
2022/10/17 02:57:44;;;;;;;16.15;9.63;;;;;;;;;;5043528;28;20028;-68
2022/10/17 03:00:12;;;;;;;15.45;10.38;;;;;;;;;;5045027;28;20057;-68
2022/10/17 03:02:39;;;;;;;13.48;10.15;;;;;;;;;;5039432;28;20037;-69
2022/10/17 03:05:05;;;;;;;12.15;9.88;;;;;;;;;;5038978;28;20049;-68
2022/10/17 03:07:31;;;;;;;14.32;10.90;;;;;;;;;;5037334;28;20536;-69
2022/10/17 03:09:57;;;;;;;14.52;11.07;;;;;;;;;;5042319;28;20083;-69
2022/10/17 03:12:23;;;;;;;15.52;10.45;;;;;;;;;;5041654;28;20037;-68
2022/10/17 03:14:49;;;;;;;15.82;10.93;;;;;;;;;;5051254;28;20495;-68
2022/10/17 03:17:15;;;;;;;12.70;10.25;;;;;;;;;;5050000;28;20044;-68
2022/10/17 03:19:41;;;;;;;13.73;10.48;;;;;;;;;;5043716;28;20044;-68
2022/10/17 03:22:07;;;;;;;15.30;10.57;;;;;;;;;;5038769;28;20045;-68
2022/10/17 03:24:33;;;;;;;15.30;10.80;;;;;;;;;;5035095;28;20033;-68
2022/10/17 03:26:59;;;;;;;12.98;10.68;;;;;;;;;;5050801;28;20039;-69
2022/10/17 03:29:25;;;;;;;16.77;11.05;;;;;;;;;;5048166;28;20045;-68
2022/10/17 03:31:51;;;;;;;16.55;10.60;;;;;;;;;;5045158;28;20037;-68
2022/10/17 03:34:17;;;;;;;15.30;11.40;;;;;;;;;;5037585;28;20033;-68
2022/10/17 03:36:44;;;;;;;20.20;11.57;;;;;;;;;;5048782;28;20029;-68
2022/10/17 03:39:10;;;;;;;13.02;10.73;;;;;;;;;;5044552;28;20049;-68
2022/10/17 03:41:36;;;;;;;15.07;10.75;;;;;;;;;;5044815;28;20053;-68
2022/10/17 03:44:02;;;;;;;14.60;10.93;;;;;;;;;;5043809;28;20048;-68
2022/10/17 03:46:28;;;;;;;16.02;10.95;;;;;;;;;;5050047;28;20051;-68
2022/10/17 03:48:54;;;;;;;14.77;11.13;;;;;;;;;;5044960;28;20396;-68
2022/10/17 03:51:20;;;;;;;14.10;11.30;;;;;;;;;;5048955;28;20037;-68
2022/10/17 03:53:46;;;;;;;17.65;11.60;;;;;;;;;;5044634;28;20495;-68
2022/10/17 03:56:16;;;;;;;17.80;12.10;;;;;;;;;;5044279;28;20037;-68
2022/10/17 03:58:42;;;;;;;14.27;10.65;;;;;;;;;;5032879;28;20045;-68
2022/10/17 04:01:09;;;;;;;17.67;11.48;;;;;;;;;;5036840;28;20406;-68
2022/10/17 04:03:35;;;;;;;17.83;11.85;;;;;;;;;;5036640;28;20402;-68
2022/10/17 04:06:01;;;;;;;12.07;10.75;;;;;;;;;;5043247;28;20049;-68
2022/10/17 04:08:28;;;;;;;15.00;11.57;;;;;;;;;;5036568;28;20048;-68
2022/10/17 04:10:58;;;;;;;15.15;11.60;;;;;;;;;;5042189;28;20041;-68
2022/10/17 04:13:24;;;;;;;17.20;11.45;;;;;;;;;;5052016;28;20506;-67
2022/10/17 04:15:57;;;;;;;16.08;12.48;;;;;;;;;;5050317;28;20055;-67
2022/10/17 04:18:23;;;;;;;14.63;12.00;;;;;;;;;;5054461;28;20036;-68
2022/10/17 04:20:49;;;;;;;18.60;11.82;;;;;;;;;;5046848;28;20491;-68
2022/10/17 04:23:15;;;;;;;16.83;12.20;;;;;;;;;;5044672;28;20643;-68
2022/10/17 04:25:41;;;;;;;18.25;12.07;;;;;;;;;;5054395;28;20558;-68
2022/10/17 04:28:07;;;;;;;17.38;12.45;;;;;;;;;;5053642;28;20048;-68
2022/10/17 04:30:33;;;;;;;18.85;12.48;;;;;;;;;;5052137;28;20372;-68
2022/10/17 04:32:59;;;;;;;16.55;12.85;;;;;;;;;;5048484;28;20470;-68
2022/10/17 04:35:25;;;;;;;18.60;12.77;;;;;;;;;;5051473;28;20051;-68
2022/10/17 04:37:51;;;;;;;18.17;13.10;;;;;;;;;;5051570;28;20180;-68
2022/10/17 04:40:17;;;;;;;19.88;12.82;;;;;;;;;;5036649;28;20072;-68
2022/10/17 04:42:43;;;;;;;18.77;12.63;;;;;;;;;;5047571;28;20439;-68
2022/10/17 04:45:09;;;;;;;18.00;12.13;;;;;;;;;;5047484;28;20073;-68
2022/10/17 04:47:35;;;;;;;19.60;13.10;;;;;;;;;;5049801;28;20541;-68
2022/10/17 04:50:01;;;;;;;19.88;13.10;;;;;;;;;;5051762;28;20045;-68
2022/10/17 04:52:27;;;;;;;17.40;13.00;;;;;;;;;;5048241;28;20048;-68
2022/10/17 04:54:53;;;;;;;16.70;12.52;;;;;;;;;;5052026;28;20108;-68
2022/10/17 04:57:19;;;;;;;19.60;12.77;;;;;;;;;;5045668;28;20033;-68
2022/10/17 04:59:45;;;;;;;20.10;13.63;;;;;;;;;;5047309;28;20053;-69
2022/10/17 05:02:11;;;;;;;19.15;13.55;;;;;;;;;;5053532;28;20040;-68
2022/10/17 05:04:37;;;;;;;20.50;13.32;;;;;;;;;;5044359;28;20475;-68
2022/10/17 05:07:03;;;;;;;21.90;13.52;;;;;;;;;;5043172;28;20126;-68
2022/10/17 05:09:29;;;;;;;19.67;13.52;;;;;;;;;;5047897;28;20487;-68
2022/10/17 05:11:55;;;;;;;20.02;14.00;;;;;;;;;;5041349;28;20479;-68
2022/10/17 05:14:21;;;;;;;19.73;13.60;;;;;;;;;;5043078;28;20037;-67
2022/10/17 05:16:48;;;;;;;22.40;13.90;;;;;;;;;;5051962;28;20044;-68
2022/10/17 05:19:14;;;;;;;17.27;12.95;;;;;;;;;;5050363;28;20056;-68
2022/10/17 05:21:40;;;;;;;22.38;13.55;;;;;;;;;;5052711;28;20487;-68
2022/10/17 05:24:07;;;;;;;18.75;13.45;;;;;;;;;;5053293;28;20041;-68
2022/10/17 05:26:33;;;;;;;17.83;13.60;;;;;;;;;;5052315;28;20049;-68
2022/10/17 05:29:01;;;;;;;20.13;13.48;;;;;;;;;;5051887;28;20068;-68
2022/10/17 05:31:27;;;;;;;19.45;13.68;;;;;;;;;;5049964;28;20055;-68
2022/10/17 05:33:53;;;;;;;21.92;14.20;;;;;;;;;;5040490;28;20545;-68
2022/10/17 05:36:19;;;;;;;19.80;13.50;;;;;;;;;;5046718;28;20037;-68
2022/10/17 05:38:52;;;;;;;19.33;13.57;;;;;;;;;;5046000;28;20048;-69
2022/10/17 05:41:18;;;;;;;18.95;14.07;;;;;;;;;;5045806;28;20049;-68
2022/10/17 05:43:44;;;;;;;21.45;14.27;;;;;;;;;;5050090;28;20037;-68
2022/10/17 05:46:10;;;;;;;17.80;13.50;;;;;;;;;;5050781;28;20049;-69
2022/10/17 05:48:36;;;;;;;25.83;14.48;;;;;;;;;;5044294;28;20044;-68
2022/10/17 05:51:06;;;;;;;22.38;14.13;;;;;;;;;;5044420;28;20040;-68
2022/10/17 05:53:33;;;;;;;22.00;14.00;;;;;;;;;;5046454;28;20037;-68
2022/10/17 05:56:00;;;;;;;20.70;14.70;;;;;;;;;;5047334;28;20064;-68
2022/10/17 05:58:26;;;;;;;22.20;14.52;;;;;;;;;;5040418;28;20079;-69
2022/10/17 06:00:57;;;;;;;20.52;14.38;;;;;;;;;;5042892;28;20033;-68
2022/10/17 06:03:23;;;;;;;20.15;13.88;;;;;;;;;;5051263;28;20033;-68
2022/10/17 06:05:50;;;;;;;22.15;14.95;;;;;;;;;;5039871;28;20103;-68
2022/10/17 06:08:16;;;;;;;19.10;13.73;;;;;;;;;;5031968;28;20045;-68
2022/10/17 06:10:42;;;;;;;20.25;13.70;;;;;;;;;;5032735;28;20099;-68
2022/10/17 06:13:08;;;;;;;21.05;15.15;;;;;;;;;;5032244;28;20076;-68
2022/10/17 06:15:34;;;;;;;22.08;15.07;;;;;;;;;;5039550;28;20037;-68
2022/10/17 06:18:00;;;;;;;20.65;14.25;;;;;;;;;;5052155;28;20032;-68
2022/10/17 06:20:26;;;;;;;25.55;14.90;;;;;;;;;;5052210;28;20045;-68
2022/10/17 06:22:52;;;;;;;21.48;14.45;;;;;;;;;;5038499;28;20045;-68
2022/10/17 06:25:18;;;;;;;20.63;14.45;;;;;;;;;;5032561;28;20077;-68
2022/10/17 06:27:44;;;;;;;20.20;14.15;;;;;;;;;;5033061;28;20046;-68
2022/10/17 06:30:10;;;;;;;20.80;14.57;;;;;;;;;;5048346;28;20041;-68
2022/10/17 06:32:36;;;;;;;22.80;14.38;;;;;;;;;;5049946;28;20561;-69
2022/10/17 06:35:02;;;;;;;23.42;14.23;;;;;;;;;;5049845;28;20043;-69
2022/10/17 06:37:32;;;;;;;22.75;14.00;;;;;;;;;;5038923;28;20043;-69
2022/10/17 06:39:58;;;;;;;18.77;13.40;;;;;;;;;;5050769;28;20060;-69
2022/10/17 06:42:24;;;;;;;21.13;14.10;;;;;;;;;;5052063;28;20079;-69
2022/10/17 06:44:50;;;;;;;21.48;12.82;;;;;;;;;;5038756;28;20136;-69
2022/10/17 06:47:16;;;;;;;21.13;13.15;;;;;;;;;;5045041;28;20087;-68
2022/10/17 06:49:42;;;;;;;19.52;12.38;;;;;;;;;;5044396;28;20036;-68
2022/10/17 06:52:09;;;;;;;19.08;12.70;;;;;;;;;;5041976;28;20036;-68
2022/10/17 06:54:35;;;;;;;18.45;12.25;;;;;;;;;;5042074;28;20044;-68
2022/10/17 06:57:01;;;;;;;18.55;11.70;;;;;;;;;;5040758;28;20135;-68
2022/10/17 06:59:27;;;;;;;23.48;11.45;;;;;;;;;;5039375;28;20132;-69
2022/10/17 07:01:53;;;;;;;21.55;11.85;;;;;;;;;;5036658;28;20041;-68
2022/10/17 07:04:19;;;;;;;17.85;12.15;;;;;;;;;;5041440;28;20044;-68
2022/10/17 07:06:45;;;;;;;19.60;11.40;;;;;;;;;;5042261;28;20075;-68
2022/10/17 07:09:11;;;;;;;17.63;11.18;;;;;;;;;;5039947;28;20041;-68
2022/10/17 07:11:37;;;;;;;16.92;11.25;;;;;;;;;;5036195;28;20078;-68
2022/10/17 07:14:03;;;;;;;15.05;10.27;;;;;;;;;;5038801;28;20041;-68
2022/10/17 07:16:29;;;;;;;17.58;10.68;;;;;;;;;;5045637;28;20506;-69
2022/10/17 07:18:55;;;;;;;16.88;11.07;;;;;;;;;;5051382;28;20045;-68
2022/10/17 07:21:21;;;;;;;17.35;11.23;;;;;;;;;;5040800;28;20087;-68
2022/10/17 07:23:47;;;;;;;17.23;11.68;;;;;;;;;;5044091;28;20033;-69
2022/10/17 07:26:15;;;;;;;18.17;11.65;;;;;;;;;;5040273;28;20376;-68
2022/10/17 07:28:42;;;;;;;20.08;10.85;;;;;;;;;;5042497;28;20044;-68
2022/10/17 07:31:09;;;;;;;15.63;10.40;;;;;;;;;;5037387;28;20132;-68
2022/10/17 07:33:35;;;;;;;19.55;10.93;;;;;;;;;;5047590;28;20513;-68
2022/10/17 07:36:01;;;;;;;14.23;9.75;;;;;;;;;;5035413;28;20034;-68
2022/10/17 07:38:28;;;;;;;19.15;10.57;;;;;;;;;;5038252;28;20048;-68
2022/10/17 07:40:55;;;;;;;14.93;10.02;;;;;;;;;;5045921;28;20453;-69
2022/10/17 07:43:21;;;;;;;13.27;10.05;;;;;;;;;;5044461;28;20033;-69
2022/10/17 07:45:47;;;;;;;14.15;9.68;;;;;;;;;;5054168;28;20207;-69
2022/10/17 07:48:13;;;;;;;11.95;9.07;;;;;;;;;;5048915;28;20746;-69
2022/10/17 07:50:39;;;;;;;18.45;9.43;;;;;;;;;;5053117;28;20040;-69
2022/10/17 07:53:05;;;;;;;13.60;9.60;;;;;;;;;;5052205;28;20040;-69
2022/10/17 07:55:31;;;;;;;14.70;9.50;;;;;;;;;;5046657;28;20119;-69
2022/10/17 07:57:59;;;;;;;14.13;9.60;;;;;;;;;;5046963;28;20043;-68
2022/10/17 08:00:25;;;;;;;14.80;9.35;;;;;;;;;;5042569;28;20053;-69
2022/10/17 08:02:51;;;;;;;13.38;9.75;;;;;;;;;;5042709;28;20409;-69
2022/10/17 08:05:17;;;;;;;15.57;9.75;;;;;;;;;;5050101;28;20414;-69
2022/10/17 08:07:43;;;;;;;15.55;10.05;;;;;;;;;;5035833;28;20095;-69
2022/10/17 08:10:11;;;;;;;15.65;10.30;;;;;;;;;;5045911;28;20037;-69
2022/10/17 08:12:37;;;;;;;12.02;9.75;;;;;;;;;;5053079;28;20486;-69
2022/10/17 08:15:04;;;;;;;17.80;10.50;;;;;;;;;;5045216;28;20045;-69
2022/10/17 08:17:30;;;;;;;17.58;9.95;;;;;;;;;;5051117;28;20033;-69
2022/10/17 08:19:56;;;;;;;11.27;9.05;;;;;;;;;;5041388;28;20049;-69
2022/10/17 08:22:22;;;;;;;15.10;10.38;;;;;;;;;;5037076;28;20460;-69
2022/10/17 08:24:48;;;;;;;17.02;10.95;;;;;;;;;;5047318;28;20040;-69
2022/10/17 08:27:20;;;;;;;16.55;10.05;;;;;;;;;;5054503;28;20045;-69
2022/10/17 08:29:47;;;;;;;13.20;9.93;;;;;;;;;;5054216;28;20045;-69
2022/10/17 08:32:13;;;;;;;13.55;9.90;;;;;;;;;;5052893;28;20073;-68
2022/10/17 08:34:39;;;;;;;14.65;9.60;;;;;;;;;;5053234;28;20040;-68
2022/10/17 08:37:05;;;;;;;18.13;9.77;;;;;;;;;;5051802;28;20037;-69
2022/10/17 08:39:31;;;;;;;15.60;10.43;;;;;;;;;;5053482;28;20049;-69
2022/10/17 08:41:57;;;;;;;13.30;10.38;;;;;;;;;;5054260;28;20120;-68
2022/10/17 08:44:42;;;;;;;18.02;10.85;;;;;;;;;;5054142;28;20138;-69
2022/10/17 08:47:14;;;;;;;18.65;10.20;;;;;;;;;;5052618;28;20049;-69
2022/10/17 08:49:50;;;;;;;15.73;10.25;;;;;;;;;;5051190;28;20453;-69
2022/10/17 08:52:22;;;;;;;15.25;10.63;;;;;;;;;;5051943;28;20523;-69
2022/10/17 08:54:48;;;;;;;17.80;10.57;;;;;;;;;;5047322;28;20033;-69
2022/10/17 08:57:15;;;;;;;17.15;10.05;;;;;;;;;;5047491;28;20521;-69
2022/10/17 08:59:42;;;;;;;14.98;10.30;;;;;;;;;;5049539;28;20045;-69
2022/10/17 09:02:20;;;;;;;16.35;10.10;;;;;;;;;;5052453;28;20045;-69
2022/10/17 09:04:52;;;;;;;18.15;9.88;;;;;;;;;;5043162;28;20124;-68
2022/10/17 09:07:42;;;;;;;12.82;9.77;;;;;;;;;;5048265;28;20044;-69
2022/10/17 09:10:08;;;;;;;13.70;9.35;;;;;;;;;;5053323;28;20041;-68
2022/10/17 09:13:01;;;;;;;16.45;10.20;;;;;;;;;;5048166;28;20495;-69
2022/10/17 09:15:30;;;;;;;16.77;9.48;;;;;;;;;;5049569;28;20399;-69
2022/10/17 09:18:02;;;;;;;16.35;9.75;;;;;;;;;;5046420;28;20033;-69
2022/10/17 09:20:33;;;;;;;13.63;9.27;;;;;;;;;;5052187;28;20451;-70
2022/10/17 09:23:09;;;;;;;15.73;9.02;;;;;;;;;;5052022;28;20257;-70
2022/10/17 09:25:41;;;;;;;13.75;9.23;;;;;;;;;;5039327;28;20040;-70
2022/10/17 09:28:10;;;;;;;13.70;9.02;;;;;;;;;;5052462;28;20124;-69
2022/10/17 09:30:36;;;;;;;11.65;8.48;;;;;;;;;;5053185;28;20037;-70
2022/10/17 09:33:12;;;;;;;14.70;9.00;;;;;;;;;;5047766;28;20042;-69
2022/10/17 09:35:40;;;;;;;13.77;8.40;;;;;;;;;;5045567;28;20047;-70
2022/10/17 09:38:09;;;;;;;14.85;8.20;;;;;;;;;;5052121;28;20112;-70
2022/10/17 09:40:36;;;;;;;12.57;8.38;;;;;;;;;;5044804;28;20041;-69
2022/10/17 09:43:04;;;;;;;13.05;7.88;;;;;;;;;;5049710;28;20301;-69
2022/10/17 09:45:36;;;;;;;11.95;8.65;;;;;;;;;;5051807;28;20043;-70
2022/10/17 09:48:09;;;;;;;12.68;8.52;;;;;;;;;;5042228;28;20051;-69
2022/10/17 09:50:35;;;;;;;17.35;8.98;;;;;;;;;;5044531;28;20490;-69
2022/10/17 09:53:21;;;;;;;15.75;9.02;;;;;;;;;;5046204;28;20166;-69
2022/10/17 09:55:49;;;;;;;14.32;9.20;;;;;;;;;;5042683;28;20037;-70
2022/10/17 09:58:15;;;;;;;16.00;9.32;;;;;;;;;;5051532;28;20047;-70
2022/10/17 10:00:43;;;;;;;13.05;9.50;;;;;;;;;;5049961;28;20045;-71
2022/10/17 10:03:17;;;;;;;14.32;9.15;;;;;;;;;;5038731;28;20506;-71
2022/10/17 10:05:58;;;;;;;11.82;9.57;;;;;;;;;;5049752;28;20037;-72
2022/10/17 10:08:27;;;;;;;15.90;10.27;;;;;;;;;;5052361;28;20059;-73
2022/10/17 10:10:57;;;;;;;14.00;9.95;;;;;;;;;;5044225;28;20116;-75
2022/10/17 10:13:25;;;;;;;16.85;9.80;;;;;;;;;;5049425;28;20099;-74
2022/10/17 10:15:51;;;;;;;16.85;10.85;;;;;;;;;;5052685;28;20048;-73
2022/10/17 10:18:36;;;;;;;16.60;10.80;;;;;;;;;;5043201;28;20041;-74
2022/10/17 10:21:10;;;;;;;15.60;10.05;;;;;;;;;;5049080;28;20072;-73
2022/10/17 10:23:39;;;;;;;19.02;10.70;;;;;;;;;;5044436;28;20491;-73
2022/10/17 10:26:14;;;;;;;16.70;10.45;;;;;;;;;;5050450;28;20076;-74
2022/10/17 10:28:41;;;;;;;18.15;11.63;;;;;;;;;;5044640;28;20044;-73
2022/10/17 10:31:08;;;;;;;16.92;12.07;;;;;;;;;;5043022;28;20048;-73
2022/10/17 10:33:36;;;;;;;17.23;11.27;;;;;;;;;;5051719;28;20505;-73
2022/10/17 10:36:04;;;;;;;20.85;11.40;;;;;;;;;;5051992;28;20167;-74
2022/10/17 10:38:31;;;;;;;21.02;11.38;;;;;;;;;;5049246;28;20037;-74
2022/10/17 10:41:02;;;;;;;19.42;11.65;;;;;;;;;;5051211;28;20487;-73
2022/10/17 10:43:34;;;;;;;17.70;10.95;;;;;;;;;;5041828;28;20032;-74
2022/10/17 10:46:00;;;;;;;17.35;11.40;;;;;;;;;;5050531;28;20392;-74
2022/10/17 10:48:29;;;;;;;20.63;12.18;;;;;;;;;;5051798;28;20479;-73
2022/10/17 10:50:58;;;;;;;16.67;12.10;;;;;;;;;;5041671;28;20041;-74
2022/10/17 10:53:41;;;;;;;19.52;12.80;;;;;;;;;;5042706;28;20040;-75
2022/10/17 10:56:27;;;;;;;20.35;12.98;;;;;;;;;;5048658;28;20477;-73
2022/10/17 10:59:02;;;;;;;22.15;14.00;;;;;;;;;;5053873;28;20103;-74
2022/10/17 11:01:28;;;;;;;22.50;13.38;;;;;;;;;;5050709;28;20406;-73
2022/10/17 11:03:59;;;;;;;18.95;12.35;;;;;;;;;;5040947;28;20037;-73
2022/10/17 11:06:27;;;;;;;18.02;11.98;;;;;;;;;;5049919;28;20468;-73
2022/10/17 11:09:11;;;;;;;19.35;12.73;;;;;;;;;;5051119;28;20041;-73
2022/10/17 11:11:40;;;;;;;18.40;12.73;;;;;;;;;;5036159;28;20379;-72
2022/10/17 11:14:18;;;;;;;22.52;13.07;;;;;;;;;;5051558;28;20495;-71
2022/10/17 11:17:23;;;;;;;21.77;13.90;;;;;;;;;;5049596;28;20495;-71
2022/10/17 11:19:52;;;;;;;20.23;13.20;;;;;;;;;;5067654;28;20036;-71
2022/10/17 11:22:18;;;;;;;22.20;12.35;;;;;;;;;;5068668;28;20087;-72
2022/10/17 11:24:46;;;;;;;22.02;13.20;;;;;;;;;;5052815;28;20044;-71
2022/10/17 11:27:12;;;;;;;20.17;12.93;;;;;;;;;;5042454;28;20052;-73
2022/10/17 11:29:39;;;;;;;20.17;12.80;;;;;;;;;;5049706;28;20048;-73
2022/10/17 11:32:31;;;;;;;21.88;12.88;;;;;;;;;;5049832;28;20037;-73
2022/10/17 11:35:05;;;;;;;18.13;12.82;;;;;;;;;;5050726;28;20049;-71
2022/10/17 11:37:37;;;;;;;22.10;13.20;;;;;;;;;;5047685;28;20037;-71
2022/10/17 11:40:10;;;;;;;16.65;11.98;;;;;;;;;;5046959;28;20041;-71
2022/10/17 11:42:42;;;;;;;19.05;11.90;;;;;;;;;;5047668;28;20044;-71
2022/10/17 11:45:17;;;;;;;17.05;11.65;;;;;;;;;;5043955;28;20075;-71
2022/10/17 11:48:00;;;;;;;18.38;11.30;;;;;;;;;;5050124;28;20265;-71
2022/10/17 11:50:37;;;;;;;15.93;10.65;;;;;;;;;;5036720;28;20037;-69
2022/10/17 11:53:08;;;;;;;15.15;10.15;;;;;;;;;;5042317;28;20045;-70
2022/10/17 11:55:37;;;;;;;12.88;9.27;;;;;;;;;;5041448;28;20037;-71
2022/10/17 11:58:21;;;;;;;14.45;9.55;;;;;;;;;;5041083;28;20049;-70
2022/10/17 12:01:16;;;;;;;14.07;9.80;;;;;;;;;;5036323;28;20077;-71
2022/10/17 12:03:42;;;;;;;13.48;9.07;;;;;;;;;;5027842;28;20048;-70
2022/10/17 12:06:17;;;;;;;14.30;9.63;;;;;;;;;;5039042;28;20419;-70
2022/10/17 12:08:49;;;;;;;13.82;9.85;;;;;;;;;;5041202;28;20076;-70
2022/10/17 12:11:17;;;;;;;12.23;9.05;;;;;;;;;;5036070;28;20095;-70
2022/10/17 12:13:43;;;;;;;12.43;9.60;;;;;;;;;;5036658;28;20033;-69
2022/10/17 12:16:19;;;;;;;14.80;9.43;;;;;;;;;;5041740;28;20487;-69
2022/10/17 12:19:05;;;;;;;12.60;8.75;;;;;;;;;;5049799;28;20033;-69
2022/10/17 12:21:50;;;;;;;14.68;8.80;;;;;;;;;;5042337;28;20052;-69
2022/10/17 12:24:27;;;;;;;11.63;8.23;;;;;;;;;;5040528;28;20494;-69
2022/10/17 12:26:53;;;;;;;11.80;8.43;;;;;;;;;;5049051;28;20082;-69
2022/10/17 12:29:29;;;;;;;13.52;8.10;;;;;;;;;;5045979;28;20041;-69
2022/10/17 12:32:09;;;;;;;10.27;7.68;;;;;;;;;;5050229;28;20045;-69
2022/10/17 12:34:35;;;;;;;11.07;7.70;;;;;;;;;;5042686;28;20037;-69
2022/10/17 12:37:01;;;;;;;10.43;6.78;;;;;;;;;;5054354;28;20035;-69
2022/10/17 12:39:27;;;;;;;10.35;7.10;;;;;;;;;;5043573;28;20041;-69
2022/10/17 12:41:53;;;;;;;9.40;6.43;;;;;;;;;;5051319;28;20045;-69
2022/10/17 12:44:20;;;;;;;8.68;6.40;;;;;;;;;;5044607;28;20044;-69
2022/10/17 12:46:52;;;;;;;11.00;6.78;;;;;;;;;;5054315;28;20041;-69
2022/10/17 12:49:37;;;;;;;8.65;6.63;;;;;;;;;;5049302;28;20102;-69
2022/10/17 12:52:21;;;;;;;11.18;6.38;;;;;;;;;;5047211;28;20037;-70
2022/10/17 12:54:59;;;;;;;8.35;6.30;;;;;;;;;;5047377;28;20029;-69
2022/10/17 12:57:32;;;;;;;11.20;6.18;;;;;;;;;;5050425;28;20632;-70
2022/10/17 12:59:58;;;;;;;9.00;5.93;;;;;;;;;;5041614;28;20489;-70
2022/10/17 13:02:26;;;;;;;8.88;6.82;;;;;;;;;;5048656;28;20044;-70
2022/10/17 13:05:03;;;;;;;11.45;6.50;;;;;;;;;;5050447;28;20037;-70
2022/10/17 13:07:29;;;;;;;8.02;6.47;;;;;;;;;;5049967;28;20153;-70
2022/10/17 13:09:55;;;;;;;8.80;6.40;;;;;;;;;;5049716;28;20065;-70
2022/10/17 13:12:26;;;;;;;8.90;6.20;;;;;;;;;;5046941;28;20033;-70
2022/10/17 13:14:53;;;;;;;9.02;6.43;;;;;;;;;;5048137;28;20056;-70
2022/10/17 13:17:33;;;;;;;8.00;6.05;;;;;;;;;;5051839;28;20044;-70
2022/10/17 13:19:59;;;;;;;8.33;6.53;;;;;;;;;;5036925;28;20045;-70
2022/10/17 13:22:27;;;;;;;9.32;6.72;;;;;;;;;;5047299;28;20037;-70
2022/10/17 13:25:06;;;;;;;9.70;6.50;;;;;;;;;;5052780;28;20064;-70
2022/10/17 13:27:33;;;;;;;10.13;7.18;;;;;;;;;;5044459;28;20102;-70
2022/10/17 13:30:00;;;;;;;8.65;6.57;;;;;;;;;;5049605;28;20033;-70
2022/10/17 13:32:34;;;;;;;10.73;6.60;;;;;;;;;;5043938;28;20087;-70
2022/10/17 13:35:06;;;;;;;7.55;6.10;;;;;;;;;;5051879;28;20033;-70
2022/10/17 13:37:33;;;;;;;7.80;6.20;;;;;;;;;;5041254;28;20044;-70
2022/10/17 13:39:59;;;;;;;8.73;6.55;;;;;;;;;;5045767;28;20526;-70
2022/10/17 13:42:26;;;;;;;9.50;6.55;;;;;;;;;;5046097;28;20084;-70
2022/10/17 13:44:53;;;;;;;9.27;6.28;;;;;;;;;;5052859;28;20040;-69
2022/10/17 13:47:27;;;;;;;8.00;6.35;;;;;;;;;;5051701;28;20051;-70
2022/10/17 13:49:53;;;;;;;7.53;6.13;;;;;;;;;;5044627;28;20124;-70
2022/10/17 13:52:21;;;;;;;8.27;5.65;;;;;;;;;;5044562;28;20037;-69
2022/10/17 13:54:52;;;;;;;8.35;6.50;;;;;;;;;;5038034;28;20564;-70
2022/10/17 13:57:18;;;;;;;9.73;5.93;;;;;;;;;;5036304;28;20487;-71
2022/10/17 13:59:48;;;;;;;9.32;6.05;;;;;;;;;;5046396;28;20047;-70
2022/10/17 14:02:22;;;;;;;9.67;6.80;;;;;;;;;;5048673;28;20449;-70
2022/10/17 14:04:58;;;;;;;22.70;20.48;;;;;;;;;;5040043;28;20044;-70
2022/10/17 14:07:45;;;;;;;9.15;5.28;;;;;;;;;;5045652;28;20041;-71
2022/10/17 14:10:34;;;;;;;3.95;3.45;;;;;;;;;;5039293;28;20054;-71
2022/10/17 14:13:03;;;;;;;9.95;8.98;;;;;;;;;;5035932;28;20056;-71
2022/10/17 14:15:30;;;;;;;5.75;5.18;;;;;;;;;;5043726;28;20044;-71
2022/10/17 14:17:59;;;;;;;12.73;11.63;;;;;;;;;;5044437;28;20461;-71
2022/10/17 14:20:27;;;;;;;3.80;2.95;;;;;;;;;;5035157;28;20506;-71
2022/10/17 14:22:54;;;;;;;5.13;3.30;;;;;;;;;;5040485;28;20071;-71
2022/10/17 14:25:30;;;;;;;7.93;7.13;;;;;;;;;;5043890;28;20047;-73
2022/10/17 14:28:17;;;;;;;10.00;7.57;;;;;;;;;;5045886;28;20431;-70
2022/10/17 14:30:44;;;;;;;17.23;15.73;;;;;;;;;;5047685;28;20041;-72
2022/10/17 14:33:29;;;;;;;7.68;6.25;;;;;;;;;;5038732;28;20065;-72
2022/10/17 14:35:56;;;;;;;7.60;5.47;;;;;;;;;;5045251;28;20447;-73
2022/10/17 14:38:23;;;;;;;4.05;3.65;;;;;;;;;;5044105;28;20529;-71
2022/10/17 14:40:53;;;;;;;5.38;3.90;;;;;;;;;;5043703;28;20037;-71